aviador You're here:

EPBY Decoded Metar

BYDGOSZCZ in POLAND
Report Time2017-08-18 04:30:00
UTC Time2017-08-18 04:43:44
Flight Rules vfr VFR
Wind180° at 06 kt
W.Decomp.*RWY 26: 0.5 kt HW 6 kt LCW
W.Rank180° ranks 20
Current wind is above 180° avg. (4.5)
Visibility9999 m
Phenomena:N/A
Clouds:N/A
Expected CloudBase > 800 ft AGL from Temp-Dew spread
CeilingNone
Temp18°C (ISA +3)
Dew Point16°C (88% RH)
AAT17.8°C
QNH1015 hPa
Density Alt814 ft
Elevation233 ft
Report Wrong Elevation
Raw Report
METAR EPBY 180430Z 18006KT CAVOK 18/16 Q1015 =

Extra information for EPBY:More info

Metar Taf Metar & Taf Last 4 Metars F.Rules Stats Wind Profile Meteogram Temp Stats Airport Information Weather charts Add Link Nearby VenuesMetar ALERT Operation Metar Decoded Social comments